URKK 170300Z 04002MPS 0050 R23L/0200N FG SCT006 BKN020 10/10 Q1013 R23L/CLRD70 TEMPO VV001 RMK QFE756
QNH:(hPa/inHg/mmHg)1013 / 29.91 / 760
QFE:(hPa/inHg/mmHg)1009 / 29.78 / 756
Temperature10
Dew Point10
Visibility0050
WeatherFog
Cloud CoverSCT (600);
BKN (2000);
VV (100);
Transition Altitude4000 ft.
Transition LevelFL50
SQUAWK